Time;durP1;ratioP1;P1;durP2;ratioP2;P2;SDS_P1;SDS_P2;PMS_P1;PMS_P2;Temp;Humidity;BMP_temperature;BMP_pressure;BME280_temperature;BME280_humidity;BME280_pressure;Samples;Min_cycle;Max_cycle;Signal;HPM_P1;HPM_P2
2021/07/02 00:00:17;;;;;;;38.70;21.80;;;15.50;99.90;;;;;;5032128;28;20050;-78
2021/07/02 00:02:44;;;;;;;37.70;21.08;;;15.50;99.90;;;;;;5031736;28;20089;-77
2021/07/02 00:05:12;;;;;;;43.05;22.33;;;15.40;99.90;;;;;;5031867;28;20454;-77
2021/07/02 00:07:40;;;;;;;42.60;22.58;;;15.40;99.90;;;;;;5032673;28;20079;-78
2021/07/02 00:10:08;;;;;;;33.90;21.30;;;15.50;99.90;;;;;;5036245;28;20092;-78
2021/07/02 00:12:36;;;;;;;42.78;22.45;;;15.50;99.90;;;;;;5036608;28;20081;-78
2021/07/02 00:15:05;;;;;;;46.05;22.85;;;15.50;99.90;;;;;;5035685;28;20053;-79
2021/07/02 00:17:32;;;;;;;49.10;22.88;;;15.50;99.90;;;;;;5037860;28;20076;-78
2021/07/02 00:19:59;;;;;;;43.33;22.83;;;15.50;99.90;;;;;;5037184;28;20470;-79
2021/07/02 00:22:26;;;;;;;37.95;21.60;;;15.50;99.90;;;;;;5036056;28;20077;-78
2021/07/02 00:24:53;;;;;;;40.47;21.50;;;15.50;99.90;;;;;;5036526;28;20132;-77
2021/07/02 00:27:19;;;;;;;40.45;22.10;;;15.50;99.90;;;;;;5034804;28;20045;-79
2021/07/02 00:29:46;;;;;;;43.55;22.00;;;15.50;99.90;;;;;;5034439;28;20046;-79
2021/07/02 00:32:14;;;;;;;38.47;22.83;;;15.50;99.90;;;;;;5038865;28;20105;-79
2021/07/02 00:34:41;;;;;;;35.47;21.70;;;15.50;99.90;;;;;;5033616;28;20137;-79
2021/07/02 00:37:08;;;;;;;39.28;21.77;;;15.50;99.90;;;;;;5032107;28;20490;-78
2021/07/02 00:39:35;;;;;;;41.47;22.05;;;15.60;99.90;;;;;;5034069;28;20494;-78
2021/07/02 00:42:02;;;;;;;39.17;21.25;;;15.60;99.90;;;;;;5033249;28;20589;-78
2021/07/02 00:44:40;;;;;;;41.22;22.75;;;15.60;99.90;;;;;;5032832;28;20084;-78
2021/07/02 00:47:07;;;;;;;40.05;20.48;;;15.60;99.90;;;;;;5031795;28;20053;-78
2021/07/02 00:49:36;;;;;;;32.80;20.85;;;15.60;99.90;;;;;;5030468;28;20131;-78
2021/07/02 00:52:04;;;;;;;38.60;20.15;;;15.50;99.90;;;;;;5031048;28;20088;-77
2021/07/02 00:54:32;;;;;;;35.85;20.55;;;15.60;99.90;;;;;;5030592;28;20132;-78
2021/07/02 00:56:59;;;;;;;33.22;20.23;;;15.60;99.90;;;;;;5031125;28;20045;-77
2021/07/02 00:59:26;;;;;;;33.13;20.25;;;15.60;99.90;;;;;;5031149;28;20069;-77
2021/07/02 01:01:53;;;;;;;37.15;20.50;;;15.60;99.90;;;;;;5030829;28;20474;-77
2021/07/02 01:04:23;;;;;;;38.95;20.75;;;15.60;99.90;;;;;;5030557;28;20085;-76
2021/07/02 01:06:53;;;;;;;38.20;21.90;;;15.50;99.90;;;;;;5030500;28;20072;-78
2021/07/02 01:09:20;;;;;;;38.10;20.58;;;15.50;99.90;;;;;;5032013;28;20132;-79
2021/07/02 01:11:47;;;;;;;39.08;22.20;;;15.50;99.90;;;;;;5031408;28;20136;-77
2021/07/02 01:14:14;;;;;;;38.10;20.45;;;15.50;99.90;;;;;;5031014;28;20081;-79
2021/07/02 01:16:41;;;;;;;36.20;20.77;;;15.50;99.90;;;;;;5031075;28;20061;-78
2021/07/02 01:19:08;;;;;;;38.67;21.50;;;15.50;99.90;;;;;;5031053;28;20133;-78
2021/07/02 01:21:37;;;;;;;44.28;21.92;;;15.50;99.90;;;;;;5031488;28;20451;-77
2021/07/02 01:24:04;;;;;;;38.45;21.20;;;15.50;99.90;;;;;;5030581;28;20088;-77
2021/07/02 01:26:32;;;;;;;39.40;22.27;;;15.40;99.90;;;;;;5030979;28;20489;-78
2021/07/02 01:29:00;;;;;;;38.22;22.95;;;15.40;99.90;;;;;;5030738;28;20147;-79
2021/07/02 01:31:27;;;;;;;40.53;22.13;;;15.30;99.90;;;;;;5031101;28;20071;-79
2021/07/02 01:33:54;;;;;;;42.92;21.67;;;15.30;99.90;;;;;;5031710;28;20196;-78
2021/07/02 01:36:23;;;;;;;39.70;21.65;;;15.30;99.90;;;;;;5031799;28;20045;-78
2021/07/02 01:38:52;;;;;;;43.35;23.27;;;15.20;99.90;;;;;;5030469;28;20128;-77
2021/07/02 01:41:19;;;;;;;35.85;21.27;;;15.20;99.90;;;;;;5030771;28;20103;-78
2021/07/02 01:43:46;;;;;;;34.30;21.50;;;15.20;99.90;;;;;;5031548;28;20100;-78
2021/07/02 01:46:13;;;;;;;40.08;21.80;;;15.20;99.90;;;;;;5036466;28;20140;-78
2021/07/02 01:48:40;;;;;;;39.42;21.73;;;15.20;99.90;;;;;;5043188;28;20113;-78
2021/07/02 01:51:07;;;;;;;40.35;22.30;;;15.20;99.90;;;;;;5036748;28;20108;-79
2021/07/02 01:53:34;;;;;;;41.92;22.15;;;15.20;99.90;;;;;;5031353;28;20080;-78
2021/07/02 01:56:02;;;;;;;42.60;21.38;;;15.20;99.90;;;;;;5030871;28;20140;-78
2021/07/02 01:58:29;;;;;;;42.08;21.98;;;15.20;99.90;;;;;;5030772;28;20132;-78
2021/07/02 02:00:59;;;;;;;38.13;21.75;;;15.20;99.90;;;;;;5034799;28;20077;-78
2021/07/02 02:03:26;;;;;;;38.65;21.70;;;15.10;99.90;;;;;;5034240;28;20136;-78
2021/07/02 02:05:52;;;;;;;38.00;21.05;;;15.10;99.90;;;;;;5034239;28;20152;-78
2021/07/02 02:08:19;;;;;;;41.55;22.13;;;15.10;99.90;;;;;;5034206;28;20088;-77
2021/07/02 02:10:46;;;;;;;42.50;21.73;;;15.10;99.90;;;;;;5034142;28;20052;-77
2021/07/02 02:13:14;;;;;;;41.47;21.77;;;15.10;99.90;;;;;;5034555;28;20059;-77
2021/07/02 02:15:42;;;;;;;38.97;22.60;;;15.10;99.90;;;;;;5034545;28;20132;-77
2021/07/02 02:18:08;;;;;;;37.53;20.88;;;15.10;99.90;;;;;;5034326;28;20524;-76
2021/07/02 02:20:35;;;;;;;40.05;20.95;;;15.10;99.90;;;;;;5034126;28;20625;-77
2021/07/02 02:23:02;;;;;;;37.83;21.80;;;15.10;99.90;;;;;;5034359;28;20092;-77
2021/07/02 02:25:29;;;;;;;40.65;21.15;;;15.10;99.90;;;;;;5038185;28;20113;-80
2021/07/02 02:27:57;;;;;;;37.45;21.17;;;15.10;99.90;;;;;;5041294;28;20046;-79
2021/07/02 02:30:27;;;;;;;42.15;22.00;;;15.10;99.90;;;;;;5036548;28;20053;-78
2021/07/02 02:32:54;;;;;;;37.63;21.55;;;15.00;99.90;;;;;;5036155;28;20049;-77
2021/07/02 02:35:21;;;;;;;39.22;21.42;;;15.00;99.90;;;;;;5035370;28;20576;-78
2021/07/02 02:37:48;;;;;;;40.63;21.70;;;15.00;99.90;;;;;;5034767;28;20045;-78
2021/07/02 02:40:16;;;;;;;39.10;22.00;;;15.00;99.90;;;;;;5034682;28;20080;-79
2021/07/02 02:42:42;;;;;;;44.00;21.45;;;15.00;99.90;;;;;;5034904;28;20053;-78
2021/07/02 02:45:10;;;;;;;42.92;21.60;;;15.10;99.90;;;;;;5034918;28;20120;-79
2021/07/02 02:47:39;;;;;;;36.78;20.90;;;15.00;99.90;;;;;;5034128;28;20144;-79
2021/07/02 02:50:07;;;;;;;33.10;20.70;;;15.00;99.90;;;;;;5034773;28;20140;-79
2021/07/02 02:52:34;;;;;;;34.40;20.17;;;15.00;99.90;;;;;;5037230;28;20132;-77
2021/07/02 02:55:01;;;;;;;33.80;19.77;;;15.00;99.90;;;;;;5036612;28;20521;-78
2021/07/02 02:57:28;;;;;;;41.03;21.05;;;15.10;99.90;;;;;;5035985;28;20063;-78
2021/07/02 02:59:55;;;;;;;34.72;20.42;;;15.00;99.90;;;;;;5035859;28;20073;-77
2021/07/02 03:02:21;;;;;;;41.05;21.70;;;15.00;99.90;;;;;;5035003;28;20050;-78
2021/07/02 03:04:50;;;;;;;40.33;20.98;;;14.90;99.90;;;;;;5034088;28;20049;-78
2021/07/02 03:07:17;;;;;;;39.30;20.55;;;14.90;99.90;;;;;;5036115;28;20049;-79
2021/07/02 03:09:44;;;;;;;39.85;21.80;;;14.90;99.90;;;;;;5036337;28;20113;-80
2021/07/02 03:12:11;;;;;;;39.50;19.85;;;14.80;99.90;;;;;;5035692;28;20157;-79
2021/07/02 03:14:37;;;;;;;36.38;19.85;;;14.80;99.90;;;;;;5035695;28;20113;-78
2021/07/02 03:17:05;;;;;;;37.00;19.80;;;14.80;99.90;;;;;;5035635;28;20132;-79
2021/07/02 03:19:31;;;;;;;39.42;20.25;;;14.80;99.90;;;;;;5035491;28;20484;-78
2021/07/02 03:22:00;;;;;;;30.95;19.55;;;14.70;99.90;;;;;;5034174;28;20423;-78
2021/07/02 03:24:27;;;;;;;38.78;20.38;;;14.60;99.90;;;;;;5034761;28;20135;-79
2021/07/02 03:26:54;;;;;;;33.92;20.08;;;14.60;99.90;;;;;;5035176;28;20085;-79
2021/07/02 03:29:21;;;;;;;39.17;19.27;;;14.60;99.90;;;;;;5034869;28;20081;-78
2021/07/02 03:31:47;;;;;;;34.35;19.58;;;14.60;99.90;;;;;;5035466;28;20128;-78
2021/07/02 03:34:14;;;;;;;36.90;19.55;;;14.50;99.90;;;;;;5036633;28;20088;-78
2021/07/02 03:36:41;;;;;;;30.13;18.98;;;14.50;99.90;;;;;;5033940;28;20049;-77
2021/07/02 03:39:09;;;;;;;36.85;19.98;;;14.50;99.90;;;;;;5033679;28;20133;-79
2021/07/02 03:41:36;;;;;;;39.63;20.90;;;14.40;99.90;;;;;;5035422;28;20091;-78
2021/07/02 03:44:03;;;;;;;34.13;20.05;;;14.40;99.90;;;;;;5033989;28;20136;-78
2021/07/02 03:46:30;;;;;;;33.83;20.60;;;14.40;99.90;;;;;;5033314;28;20088;-77
2021/07/02 03:48:57;;;;;;;35.85;20.20;;;14.40;99.90;;;;;;5033571;28;20049;-77
2021/07/02 03:51:24;;;;;;;31.50;19.67;;;14.40;99.90;;;;;;5032772;28;20115;-77
2021/07/02 03:53:51;;;;;;;30.85;19.00;;;14.40;99.90;;;;;;5032654;28;20479;-77
2021/07/02 03:56:19;;;;;;;32.63;19.08;;;14.40;99.90;;;;;;5032508;28;20477;-77
2021/07/02 03:58:46;;;;;;;36.03;19.00;;;14.40;99.90;;;;;;5033319;28;20073;-77
2021/07/02 04:01:13;;;;;;;29.30;18.83;;;14.40;99.90;;;;;;5033961;28;20089;-77
2021/07/02 04:03:40;;;;;;;33.42;19.67;;;14.30;99.90;;;;;;5033823;28;20103;-78
2021/07/02 04:06:07;;;;;;;25.70;18.15;;;14.30;99.90;;;;;;5062171;23;20112;-79
2021/07/02 04:08:34;;;;;;;31.70;17.67;;;14.40;99.90;;;;;;5052177;28;20045;-79
2021/07/02 04:11:01;;;;;;;29.60;18.50;;;14.30;99.90;;;;;;5039683;28;20575;-79
2021/07/02 04:13:29;;;;;;;26.52;17.30;;;14.30;99.90;;;;;;5037882;28;20099;-80
2021/07/02 04:15:56;;;;;;;27.05;17.60;;;14.30;99.90;;;;;;5036241;28;20473;-80
2021/07/02 04:18:23;;;;;;;31.77;18.67;;;14.30;99.90;;;;;;5037277;28;20569;-80
2021/07/02 04:20:50;;;;;;;28.55;19.55;;;14.30;99.90;;;;;;5043886;28;20084;-80
2021/07/02 04:23:16;;;;;;;29.88;16.35;;;14.40;99.90;;;;;;5035473;28;20053;-80
2021/07/02 04:25:43;;;;;;;29.40;18.45;;;14.40;99.90;;;;;;5035916;28;20111;-80
2021/07/02 04:28:10;;;;;;;30.75;18.25;;;14.30;99.90;;;;;;5035064;28;20136;-80
2021/07/02 04:30:38;;;;;;;28.98;17.60;;;14.40;99.90;;;;;;5033702;28;20482;-80
2021/07/02 04:33:05;;;;;;;26.23;16.60;;;14.40;99.90;;;;;;5033397;28;20132;-79
2021/07/02 04:35:32;;;;;;;28.33;17.50;;;14.40;99.90;;;;;;5033326;28;20352;-79
2021/07/02 04:37:59;;;;;;;31.38;16.77;;;14.40;99.90;;;;;;5033200;28;20077;-80
2021/07/02 04:40:26;;;;;;;23.65;16.15;;;14.50;99.90;;;;;;5032820;28;20060;-80
2021/07/02 04:42:53;;;;;;;26.15;16.17;;;14.50;99.90;;;;;;5032496;28;20050;-78
2021/07/02 04:45:20;;;;;;;24.35;15.73;;;14.40;99.90;;;;;;5033692;28;20057;-80
2021/07/02 04:47:48;;;;;;;30.38;17.58;;;14.40;99.90;;;;;;5035172;28;20084;-79
2021/07/02 04:50:15;;;;;;;28.73;17.17;;;14.40;99.90;;;;;;5033117;28;20141;-79
2021/07/02 04:52:42;;;;;;;26.38;16.75;;;14.40;99.90;;;;;;5034014;28;20512;-78
2021/07/02 04:55:10;;;;;;;25.50;16.13;;;14.40;99.90;;;;;;5034773;28;20049;-78
2021/07/02 04:57:37;;;;;;;25.15;16.17;;;14.50;99.90;;;;;;5034953;28;20105;-79
2021/07/02 05:00:06;;;;;;;23.55;15.98;;;14.60;99.90;;;;;;5035082;28;20060;-80
2021/07/02 05:02:33;;;;;;;24.55;15.13;;;14.70;99.90;;;;;;5037130;28;20136;-81
2021/07/02 05:05:01;;;;;;;22.35;14.45;;;15.00;99.90;;;;;;5035898;28;20091;-81
2021/07/02 05:07:29;;;;;;;22.13;13.95;;;15.60;99.90;;;;;;5035594;28;20088;-79
2021/07/02 05:09:56;;;;;;;23.00;14.80;;;15.90;99.90;;;;;;5036930;28;20045;-80
2021/07/02 05:12:23;;;;;;;20.05;13.95;;;16.20;99.90;;;;;;5035997;28;20081;-81
2021/07/02 05:14:50;;;;;;;24.42;14.43;;;16.40;99.90;;;;;;5037005;28;20108;-81
2021/07/02 05:17:17;;;;;;;21.08;14.00;;;16.50;99.90;;;;;;5037045;28;20425;-80
2021/07/02 05:19:44;;;;;;;25.08;14.98;;;16.70;99.90;;;;;;5036629;28;20107;-82
2021/07/02 05:22:16;;;;;;;20.27;14.38;;;16.80;99.90;;;;;;5037501;28;20504;-82
2021/07/02 05:24:43;;;;;;;;;;;17.00;99.90;;;;;;5036541;28;20103;-81
2021/07/02 05:27:10;;;;;;;20.80;14.18;;;17.30;99.90;;;;;;5038004;28;19957;-80
2021/07/02 05:29:37;;;;;;;20.92;13.50;;;17.80;99.90;;;;;;5035701;28;20148;-81
2021/07/02 05:32:05;;;;;;;17.67;12.00;;;18.70;99.90;;;;;;5038239;28;20136;-81
2021/07/02 05:34:32;;;;;;;17.48;11.43;;;19.90;99.90;;;;;;5039258;28;20141;-80
2021/07/02 05:36:59;;;;;;;18.90;11.18;;;20.90;99.90;;;;;;5041434;28;20049;-79
2021/07/02 05:39:27;;;;;;;16.45;10.88;;;21.90;99.90;;;;;;5041008;28;20045;-79
2021/07/02 05:41:54;;;;;;;17.55;10.73;;;22.40;99.90;;;;;;5040774;28;20106;-79
2021/07/02 05:44:21;;;;;;;17.13;10.82;;;23.10;99.90;;;;;;5041001;28;20117;-79
2021/07/02 05:46:48;;;;;;;22.35;12.05;;;23.50;99.90;;;;;;5053165;28;20528;-79
2021/07/02 05:49:16;;;;;;;51.90;14.13;;;24.20;99.90;;;;;;5039005;28;20325;-79
2021/07/02 05:51:43;;;;;;;22.73;12.43;;;24.80;99.90;;;;;;5040178;28;20049;-79
2021/07/02 05:54:10;;;;;;;16.17;9.80;;;25.30;99.90;;;;;;5039375;28;20161;-80
2021/07/02 05:56:38;;;;;;;14.40;10.48;;;25.70;99.90;;;;;;5040494;28;20045;-80
2021/07/02 05:59:05;;;;;;;12.77;9.70;;;26.20;99.90;;;;;;5039746;28;20136;-79
2021/07/02 06:01:32;;;;;;;12.25;9.75;;;26.30;99.90;;;;;;5039068;28;20091;-81
2021/07/02 06:03:59;;;;;;;15.65;10.18;;;26.10;99.90;;;;;;5048947;28;20056;-82
2021/07/02 06:06:26;;;;;;;12.88;9.70;;;25.10;99.90;;;;;;5041557;28;20148;-80
2021/07/02 06:08:53;;;;;;;13.10;9.50;;;24.20;99.90;;;;;;5048160;28;20046;-80
2021/07/02 06:11:20;;;;;;;16.98;9.07;;;23.50;99.90;;;;;;5048692;28;20045;-79
2021/07/02 06:13:49;;;;;;;10.52;8.20;;;23.00;99.90;;;;;;5049430;28;20049;-82
2021/07/02 06:16:16;;;;;;;10.98;8.85;;;22.20;99.90;;;;;;5049807;28;20132;-80
2021/07/02 06:18:43;;;;;;;12.93;8.93;;;21.80;99.90;;;;;;5046714;28;20120;-80
2021/07/02 06:21:10;;;;;;;17.02;9.50;;;21.50;99.90;;;;;;5047781;28;20132;-79
2021/07/02 06:23:38;;;;;;;12.20;8.95;;;21.60;99.90;;;;;;5049986;28;20049;-79
2021/07/02 06:26:07;;;;;;;13.10;8.13;;;22.40;99.90;;;;;;5048258;28;20162;-81
2021/07/02 06:28:34;;;;;;;13.00;7.55;;;23.30;99.90;;;;;;5048689;28;20143;-80
2021/07/02 06:31:02;;;;;;;11.68;7.65;;;24.30;99.90;;;;;;5051401;28;20048;-80
2021/07/02 06:33:29;;;;;;;10.88;7.25;;;25.30;99.90;;;;;;5050017;28;20071;-81
2021/07/02 06:35:57;;;;;;;10.48;6.90;;;26.10;99.90;;;;;;5055946;28;20096;-80
2021/07/02 06:38:24;;;;;;;8.63;7.00;;;26.70;99.90;;;;;;5044902;28;20124;-79
2021/07/02 06:40:52;;;;;;;10.57;6.70;;;27.10;99.90;;;;;;5048079;28;20073;-81
2021/07/02 06:43:19;;;;;;;8.48;5.70;;;27.70;99.90;;;;;;5048534;28;20534;-81
2021/07/02 06:45:46;;;;;;;7.53;5.28;;;27.80;99.90;;;;;;5047498;28;20132;-80
2021/07/02 06:48:14;;;;;;;8.07;5.10;;;27.90;99.90;;;;;;5049427;28;20072;-84
2021/07/02 06:50:44;;;;;;;10.88;5.32;;;28.30;99.90;;;;;;5050911;28;20394;-81
2021/07/02 06:53:12;;;;;;;7.38;5.18;;;28.50;99.90;;;;;;5049513;28;20064;-82
2021/07/02 06:55:40;;;;;;;9.63;6.10;;;27.80;99.90;;;;;;5048521;28;20045;-82
2021/07/02 06:58:09;;;;;;;10.43;6.05;;;26.80;99.90;;;;;;5049318;28;20052;-82
2021/07/02 07:00:38;;;;;;;8.35;5.47;;;26.00;99.90;;;;;;5049704;28;20041;-83
2021/07/02 07:03:05;;;;;;;8.93;5.70;;;25.70;99.90;;;;;;5045937;28;20132;-83
2021/07/02 07:05:33;;;;;;;9.07;5.47;;;26.10;99.90;;;;;;5049153;28;20124;-82
2021/07/02 07:08:01;;;;;;;10.68;6.13;;;26.30;99.90;;;;;;5049672;28;20044;-79
2021/07/02 07:10:30;;;;;;;9.38;6.45;;;26.30;99.90;;;;;;5043969;28;20092;-78
2021/07/02 07:12:58;;;;;;;8.35;6.13;;;26.30;99.90;;;;;;5028196;28;20045;-79
2021/07/02 07:15:25;;;;;;;9.32;5.72;;;25.60;99.90;;;;;;5033966;28;20498;-81
2021/07/02 07:17:52;;;;;;;8.55;5.40;;;25.50;99.90;;;;;;5042033;28;20051;-79
2021/07/02 07:20:21;;;;;;;8.48;5.90;;;25.40;99.90;;;;;;5032272;28;20554;-82
2021/07/02 07:22:50;;;;;;;8.13;5.60;;;25.10;99.90;;;;;;5027243;28;20066;-80
2021/07/02 07:25:20;;;;;;;7.60;5.53;;;24.70;99.90;;;;;;5034134;28;20099;-80
2021/07/02 07:27:47;;;;;;;11.30;5.72;;;24.20;99.90;;;;;;5040355;28;20049;-80
2021/07/02 07:30:15;;;;;;;8.07;5.47;;;24.10;99.90;;;;;;5046791;28;20128;-81
2021/07/02 07:32:44;;;;;;;8.27;6.43;;;24.60;99.90;;;;;;5059580;28;20052;-82
2021/07/02 07:37:57;;;;;;;7.68;5.57;;;24.50;99.90;;;;;;5063132;28;20052;-82
2021/07/02 07:40:26;;;;;;;8.98;5.80;;;24.50;99.90;;;;;;5065113;28;20044;-83
2021/07/02 07:42:53;;;;;;;7.60;5.50;;;24.20;99.90;;;;;;5067651;28;20151;-80
2021/07/02 07:45:20;;;;;;;7.25;5.78;;;23.90;99.90;;;;;;5064663;28;20076;-81
2021/07/02 07:47:47;;;;;;;7.03;5.22;;;23.80;99.90;;;;;;5065189;28;20049;-82
2021/07/02 07:50:18;;;;;;;8.65;5.65;;;23.90;99.90;;;;;;5067533;28;20049;-81
2021/07/02 07:52:52;;;;;;;10.50;6.55;;;23.80;99.90;;;;;;5072995;28;20116;-83
2021/07/02 07:55:21;;;;;;;10.45;6.20;;;23.60;99.90;;;;;;5071023;28;20082;-82
2021/07/02 07:57:48;;;;;;;11.88;5.88;;;23.30;99.90;;;;;;5069650;28;20049;-82
2021/07/02 08:00:16;;;;;;;11.52;6.93;;;23.20;99.90;;;;;;5070126;28;20082;-83
2021/07/02 08:02:43;;;;;;;7.43;5.60;;;23.00;99.90;;;;;;5063339;28;20080;-84
2021/07/02 08:05:11;;;;;;;6.90;6.05;;;22.90;99.90;;;;;;5069205;28;20076;-84
2021/07/02 08:07:39;;;;;;;7.43;5.55;;;22.90;99.90;;;;;;5070220;28;20106;-83
2021/07/02 08:10:07;;;;;;;8.52;5.57;;;23.00;99.90;;;;;;5070395;28;20045;-81
2021/07/02 08:12:36;;;;;;;8.57;5.20;;;23.10;99.90;;;;;;5068428;28;20045;-83
2021/07/02 08:15:06;;;;;;;8.27;5.80;;;23.10;99.90;;;;;;5070178;28;20083;-83
2021/07/02 08:17:33;;;;;;;6.63;5.45;;;23.20;99.90;;;;;;5070818;28;20075;-85
2021/07/02 08:20:00;;;;;;;8.60;5.45;;;23.10;99.90;;;;;;5068429;28;20041;-82
2021/07/02 08:22:28;;;;;;;7.97;5.22;;;23.00;99.90;;;;;;5068715;28;20048;-82
2021/07/02 08:24:55;;;;;;;9.43;5.10;;;23.00;99.90;;;;;;5069170;28;20125;-83
2021/07/02 08:27:24;;;;;;;7.97;5.50;;;23.10;99.90;;;;;;5069393;28;20048;-83
2021/07/02 08:29:51;;;;;;;7.03;5.18;;;23.20;99.90;;;;;;5069895;28;20049;-81
2021/07/02 08:32:18;;;;;;;6.88;5.28;;;23.30;99.90;;;;;;5067750;28;20045;-81
2021/07/02 08:34:46;;;;;;;8.55;5.40;;;23.20;99.90;;;;;;5063666;28;20049;-82
2021/07/02 08:37:12;;;;;;;9.50;5.70;;;23.10;99.90;;;;;;5067765;28;20076;-81
2021/07/02 08:39:39;;;;;;;12.68;6.00;;;23.10;99.90;;;;;;5066755;28;20073;-82
2021/07/02 08:42:07;;;;;;;9.73;5.80;;;23.10;99.90;;;;;;5067119;28;20369;-82
2021/07/02 08:44:34;;;;;;;7.88;5.45;;;23.20;99.90;;;;;;5070223;28;20049;-82
2021/07/02 08:47:27;;;;;;;7.95;6.07;;;23.30;99.90;;;;;;5070603;28;20044;-83
2021/07/02 08:49:54;;;;;;;9.15;6.22;;;23.30;99.90;;;;;;5057272;28;20045;-79
2021/07/02 08:52:21;;;;;;;11.73;5.55;;;23.50;99.90;;;;;;5061546;28;20076;-81
2021/07/02 08:54:48;;;;;;;9.93;5.70;;;23.50;99.90;;;;;;5063350;28;20071;-80
2021/07/02 08:57:15;;;;;;;7.80;5.95;;;23.60;99.90;;;;;;5055869;28;20128;-83
2021/07/02 08:59:42;;;;;;;8.20;5.20;;;23.70;99.90;;;;;;5055694;28;20077;-78
2021/07/02 09:02:29;;;;;;;8.85;5.68;;;23.80;99.90;;;;;;5054453;28;20091;-79
2021/07/02 09:04:56;;;;;;;8.60;5.35;;;23.70;99.90;;;;;;5055563;28;20056;-81
2021/07/02 09:07:23;;;;;;;6.85;5.15;;;23.80;99.90;;;;;;5056150;28;20501;-79
2021/07/02 09:09:55;;;;;;;9.07;5.22;;;23.80;99.90;;;;;;5057496;28;20131;-82
2021/07/02 09:12:25;;;;;;;8.27;5.80;;;23.70;99.90;;;;;;5060399;28;20144;-80
2021/07/02 09:15:10;;;;;;;8.35;5.78;;;23.80;99.90;;;;;;5059022;28;20540;-80
2021/07/02 09:17:54;;;;;;;8.48;5.75;;;23.60;99.90;;;;;;5060284;28;20055;-82
2021/07/02 09:20:24;;;;;;;8.68;5.68;;;23.50;99.90;;;;;;5060076;28;20051;-80
2021/07/02 09:22:52;;;;;;;12.85;6.15;;;23.80;99.90;;;;;;5060704;28;20059;-82
2021/07/02 09:25:28;;;;;;;10.38;6.50;;;24.10;99.90;;;;;;5059472;28;20084;-81
2021/07/02 09:27:57;;;;;;;10.45;6.10;;;24.50;99.90;;;;;;5059902;28;20084;-79
2021/07/02 09:30:26;;;;;;;11.40;6.05;;;24.70;99.90;;;;;;5061868;28;20056;-80
2021/07/02 09:32:56;;;;;;;10.60;6.28;;;24.90;99.90;;;;;;5061508;28;20080;-81
2021/07/02 09:35:29;;;;;;;9.82;6.72;;;24.70;99.90;;;;;;5060929;28;20139;-83
2021/07/02 09:37:58;;;;;;;9.90;6.82;;;24.70;99.90;;;;;;5060685;28;20081;-79
2021/07/02 09:40:27;;;;;;;12.82;7.72;;;24.80;99.90;;;;;;5064510;28;20100;-80
2021/07/02 09:43:07;;;;;;;14.30;6.70;;;24.80;99.90;;;;;;5068717;28;20053;-85
2021/07/02 09:45:35;;;;;;;12.70;7.88;;;25.00;99.90;;;;;;5070401;28;20122;-84
2021/07/02 09:48:11;;;;;;;15.20;8.05;;;25.20;99.90;;;;;;5058993;28;20056;-82
2021/07/02 09:50:39;;;;;;;16.27;8.20;;;25.40;99.90;;;;;;5058036;28;20049;-81
2021/07/02 09:53:09;;;;;;;10.77;7.30;;;25.60;99.90;;;;;;5058435;28;20056;-80
2021/07/02 09:55:43;;;;;;;11.20;8.30;;;25.50;99.90;;;;;;5058994;28;20053;-80
2021/07/02 09:58:11;;;;;;;10.55;7.80;;;25.70;99.90;;;;;;5059185;28;20136;-81
2021/07/02 10:00:41;;;;;;;13.52;8.05;;;25.90;99.90;;;;;;5058986;28;20505;-81
2021/07/02 10:03:10;;;;;;;11.20;7.38;;;26.00;99.90;;;;;;5058213;28;20084;-81
2021/07/02 10:08:29;;;;;;;14.50;8.30;;;26.10;99.90;;;;;;5045429;22;20506;-78
2021/07/02 10:10:59;;;;;;;11.35;8.02;;;26.20;99.90;;;;;;5033952;28;20049;-78
2021/07/02 10:13:29;;;;;;;14.02;8.45;;;25.90;99.90;;;;;;5034764;28;20083;-77
2021/07/02 10:15:57;;;;;;;11.95;8.93;;;25.50;99.90;;;;;;5034532;28;20053;-79
2021/07/02 10:18:29;;;;;;;13.18;8.52;;;25.40;99.90;;;;;;5034922;28;20135;-78
2021/07/02 10:21:00;;;;;;;13.13;8.48;;;25.40;99.90;;;;;;5034554;28;20049;-78
2021/07/02 10:23:28;;;;;;;11.50;8.00;;;25.50;99.90;;;;;;5034591;28;20058;-79
2021/07/02 10:25:56;;;;;;;13.23;8.20;;;25.10;99.90;;;;;;5034787;28;20136;-78
2021/07/02 10:28:24;;;;;;;9.40;7.85;;;24.90;99.90;;;;;;5036043;28;20072;-79
2021/07/02 10:30:52;;;;;;;11.27;7.70;;;24.70;99.90;;;;;;5034905;28;20049;-79
2021/07/02 10:33:20;;;;;;;12.27;8.15;;;24.60;99.90;;;;;;5034369;28;20052;-79
2021/07/02 10:35:54;;;;;;;9.85;8.40;;;24.50;99.90;;;;;;5035009;28;20688;-79
2021/07/02 10:38:21;;;;;;;13.30;8.70;;;24.30;99.90;;;;;;5035010;28;20481;-80
2021/07/02 10:40:48;;;;;;;11.90;8.88;;;24.10;99.90;;;;;;5035164;28;20088;-79
2021/07/02 10:43:22;;;;;;;12.82;7.63;;;24.00;99.90;;;;;;5034080;28;20324;-79
2021/07/02 10:46:11;;;;;;;12.40;8.15;;;24.10;99.90;;;;;;5034128;28;20085;-78
2021/07/02 10:48:59;;;;;;;14.82;8.52;;;24.20;99.90;;;;;;5034628;28;20099;-78
2021/07/02 10:51:50;;;;;;;11.45;8.50;;;24.20;99.90;;;;;;5034174;28;20081;-79
2021/07/02 10:54:38;;;;;;;11.60;8.75;;;24.00;99.90;;;;;;5026399;28;20398;-79
2021/07/02 10:57:13;;;;;;;14.02;9.73;;;24.10;99.90;;;;;;5033816;28;20397;-78
2021/07/02 11:00:19;;;;;;;13.75;9.98;;;24.00;99.90;;;;;;5034600;28;20081;-78
2021/07/02 11:02:46;;;;;;;15.82;9.63;;;23.80;99.90;;;;;;5034387;28;20200;-78
2021/07/02 11:05:36;;;;;;;12.85;10.18;;;23.70;99.90;;;;;;5034172;28;20089;-78
2021/07/02 11:08:04;;;;;;;13.10;10.20;;;23.70;99.90;;;;;;5034499;28;20050;-78
2021/07/02 11:10:54;;;;;;;14.90;10.13;;;23.80;99.90;;;;;;5034072;28;20115;-79
2021/07/02 11:13:21;;;;;;;14.18;10.57;;;23.70;99.90;;;;;;5033574;28;20057;-78
2021/07/02 11:16:04;;;;;;;17.38;11.10;;;23.70;99.90;;;;;;5033559;28;20128;-79
2021/07/02 11:18:43;;;;;;;14.35;11.10;;;23.60;99.90;;;;;;5033690;28;20137;-79
2021/07/02 11:21:18;;;;;;;14.60;10.27;;;23.60;99.90;;;;;;5033689;28;20049;-80
2021/07/02 11:23:47;;;;;;;16.05;10.98;;;23.70;99.90;;;;;;5033202;28;20053;-78
2021/07/02 11:26:43;;;;;;;16.00;10.55;;;24.00;99.90;;;;;;5032899;28;20049;-79
2021/07/02 11:29:10;;;;;;;12.05;10.32;;;24.10;99.90;;;;;;5033490;28;20092;-78
2021/07/02 11:31:38;;;;;;;13.50;10.40;;;24.20;99.90;;;;;;5032618;28;20053;-79
2021/07/02 11:34:17;;;;;;;11.60;10.40;;;24.30;99.90;;;;;;5032866;28;20226;-78
2021/07/02 11:37:12;;;;;;;13.57;10.20;;;24.20;99.90;;;;;;5032777;28;20054;-78
2021/07/02 11:39:40;;;;;;;15.57;10.57;;;24.20;99.90;;;;;;5033490;28;20072;-80
2021/07/02 11:42:11;;;;;;;13.30;10.27;;;24.00;99.90;;;;;;5035560;28;20073;-80
2021/07/02 11:44:39;;;;;;;11.52;9.18;;;24.20;99.90;;;;;;5037191;28;20053;-79
2021/07/02 11:47:06;;;;;;;15.05;9.77;;;24.10;99.90;;;;;;5036862;28;20136;-80
2021/07/02 11:49:33;;;;;;;12.05;9.30;;;24.00;99.90;;;;;;5035752;28;20128;-78
2021/07/02 11:52:00;;;;;;;15.85;10.52;;;23.90;99.90;;;;;;5037590;28;20041;-83
2021/07/02 11:54:27;;;;;;;20.75;9.25;;;23.80;99.90;;;;;;5036757;28;20053;-79
2021/07/02 11:56:55;;;;;;;15.30;9.50;;;24.10;99.90;;;;;;5035672;28;20477;-78
2021/07/02 11:59:23;;;;;;;10.48;8.98;;;24.40;99.90;;;;;;5034637;28;20179;-78
2021/07/02 12:01:54;;;;;;;11.25;8.90;;;24.60;99.90;;;;;;5034011;28;20057;-80
2021/07/02 12:04:22;;;;;;;10.95;8.68;;;24.60;99.90;;;;;;5034687;28;20045;-80
2021/07/02 12:06:51;;;;;;;10.63;8.35;;;24.70;99.90;;;;;;5034905;28;20115;-79
2021/07/02 12:09:19;;;;;;;13.25;8.65;;;24.80;99.90;;;;;;5035262;28;20137;-78
2021/07/02 12:11:51;;;;;;;11.38;8.48;;;24.80;99.90;;;;;;5034125;28;20423;-77
2021/07/02 12:14:26;;;;;;;11.52;8.35;;;24.80;99.90;;;;;;5035901;28;20057;-78
2021/07/02 12:16:54;;;;;;;10.57;8.35;;;24.50;99.90;;;;;;5038898;28;20049;-78
2021/07/02 12:19:23;;;;;;;13.70;10.25;;;24.50;99.90;;;;;;5040612;28;20049;-79
2021/07/02 12:21:52;;;;;;;10.90;9.73;;;24.30;99.90;;;;;;5042188;28;20076;-79
2021/07/02 12:24:23;;;;;;;12.88;9.82;;;24.30;99.90;;;;;;5038373;28;20413;-78
2021/07/02 12:26:52;;;;;;;13.40;9.23;;;24.40;99.90;;;;;;5036438;28;20053;-80
2021/07/02 12:29:21;;;;;;;9.88;8.15;;;24.60;99.90;;;;;;5037341;28;20457;-79
2021/07/02 12:31:50;;;;;;;11.50;8.93;;;24.50;99.90;;;;;;5034871;28;20075;-79
2021/07/02 12:34:19;;;;;;;9.60;7.75;;;24.60;99.90;;;;;;5035897;28;20064;-79
2021/07/02 12:37:08;;;;;;;10.90;8.77;;;24.50;99.90;;;;;;5035504;28;20081;-79
2021/07/02 12:39:37;;;;;;;11.63;9.05;;;24.30;99.90;;;;;;5031522;28;20108;-79
2021/07/02 12:42:10;;;;;;;10.63;8.63;;;24.30;99.90;;;;;;5035222;28;20045;-79
2021/07/02 12:44:40;;;;;;;12.57;9.13;;;24.50;99.90;;;;;;5035183;28;20057;-80
2021/07/02 12:47:08;;;;;;;9.88;8.90;;;24.60;99.90;;;;;;5035113;28;20289;-79